Terminal Aerodrome Forecast
Issued by NWS

Home | Current Version | Previous Version | Text Only | Print | Product List | Glossary On
Versions: 1 2 3 4 5 6 7 8 9 10 11 12 13 14 15 16 17 18
000
FTUS45 KRIW 272051 AAA
TAFJAC
TAF AMD
KJAC 272051Z 2721/2818 17012G18KT P6SM VCTS SCT050CB BKN070
     FM280200 20008KT P6SM SCT060 BKN100
     FM281100 VRB04KT P6SM VCFG FEW009 SCT100
     FM281700 19011KT P6SM SCT070
      AMD LTD TO CLD VIS AND WIND=

USA.gov is the U.S. government's official web portal to all federal, state and local government web resources and services.